West Pointe A la Hache, Louisiana
Current Conditions -  °F | °C
As of 11:58 AM on Friday 24 Oct 2014 (Local Time) from K1B7 Reporting Station
Clear Clear  
Wind Chill: 72°   Ceiling: Unl
Heat Index: 72°   Visibility: 10mi
Dew Point: 55°   Wind: 6mph
Humidity: 57%   Direction: 40°NE
Pressure: 30.08"   Gusts: NA
Location:  29.4927°N, 89.8165°W
Report Text: K1B7 241658Z 04005KT 10SM SKC 22/13 A3008
Loading
Personal Weather Stations






























Interactive Weather Map
Tropical Storm Tracking
New forecast layout! Learn more

10-Day Weather Forecast

Advertisements
Track Severe Weather on mobile